<?xml version="1.0" encoding="UTF-8" standalone="no" ?>
<gpx xmlns="http://www.topografix.com/GPX/1/1" xmlns:xsi="http://www.w3.org/2001/XMLSchema-instance" xsi:schemaLocation="http://www.topografix.com/GPX/1/1 http://www.topografix.com/GPX/1/1/gpx.xsd" version="1.1" creator="VisuGPX - https://www.visugpx.com">
  <metadata>
    <name>Besain,La fontaine du Riable</name>
  </metadata>
  <trk>
    <name><![CDATA[saved]]></name>
    <trkseg>
      <trkpt lat="46.80623" lon="5.78768">
        <ele>547.4</ele>
        <time>2020-05-12T14:39:07Z</time>
      </trkpt>
      <trkpt lat="46.80624" lon="5.78779">
        <ele>561.4</ele>
        <time>2020-05-12T14:40:09Z</time>
      </trkpt>
      <trkpt lat="46.80631" lon="5.7881">
        <ele>559.3</ele>
        <time>2020-05-12T14:40:38Z</time>
      </trkpt>
      <trkpt lat="46.80632" lon="5.78822">
        <ele>559.4</ele>
        <time>2020-05-12T14:40:40Z</time>
      </trkpt>
      <trkpt lat="46.80633" lon="5.78829">
        <ele>559.7</ele>
        <time>2020-05-12T14:40:43Z</time>
      </trkpt>
      <trkpt lat="46.80634" lon="5.78835">
        <ele>560.5</ele>
        <time>2020-05-12T14:40:53Z</time>
      </trkpt>
      <trkpt lat="46.80632" lon="5.78842">
        <ele>560.7</ele>
        <time>2020-05-12T14:40:55Z</time>
      </trkpt>
      <trkpt lat="46.80632" lon="5.78855">
        <ele>560.9</ele>
        <time>2020-05-12T14:40:57Z</time>
      </trkpt>
      <trkpt lat="46.80633" lon="5.78865">
        <ele>561.1</ele>
        <time>2020-05-12T14:40:59Z</time>
      </trkpt>
      <trkpt lat="46.80632" lon="5.78872">
        <ele>561.6</ele>
        <time>2020-05-12T14:41:02Z</time>
      </trkpt>
      <trkpt lat="46.80629" lon="5.78879">
        <ele>562.6</ele>
        <time>2020-05-12T14:41:09Z</time>
      </trkpt>
      <trkpt lat="46.80625" lon="5.78884">
        <ele>563.7</ele>
        <time>2020-05-12T14:41:19Z</time>
      </trkpt>
      <trkpt lat="46.8062" lon="5.78891">
        <ele>563.9</ele>
        <time>2020-05-12T14:41:21Z</time>
      </trkpt>
      <trkpt lat="46.80613" lon="5.78901">
        <ele>564.2</ele>
        <time>2020-05-12T14:41:23Z</time>
      </trkpt>
      <trkpt lat="46.80608" lon="5.78907">
        <ele>564.4</ele>
        <time>2020-05-12T14:41:25Z</time>
      </trkpt>
      <trkpt lat="46.80605" lon="5.78912">
        <ele>564.6</ele>
        <time>2020-05-12T14:41:28Z</time>
      </trkpt>
      <trkpt lat="46.80602" lon="5.78919">
        <ele>564.7</ele>
        <time>2020-05-12T14:41:35Z</time>
      </trkpt>
      <trkpt lat="46.80598" lon="5.7893">
        <ele>563.8</ele>
        <time>2020-05-12T14:42:03Z</time>
      </trkpt>
      <trkpt lat="46.80594" lon="5.78934">
        <ele>564.3</ele>
        <time>2020-05-12T14:42:07Z</time>
      </trkpt>
      <trkpt lat="46.8059" lon="5.78939">
        <ele>565.3</ele>
        <time>2020-05-12T14:42:12Z</time>
      </trkpt>
      <trkpt lat="46.80585" lon="5.78942">
        <ele>566.1</ele>
        <time>2020-05-12T14:42:17Z</time>
      </trkpt>
      <trkpt lat="46.8058" lon="5.78949">
        <ele>566.2</ele>
        <time>2020-05-12T14:42:20Z</time>
      </trkpt>
    </trkseg>
  </trk>
</gpx>